sensor_id;sensor_type;location;lat;lon;timestamp;temperature;humidity
64796;DHT22;51229;51.980;6.722;2023-01-15T00:01:32;4.40;99.90
64796;DHT22;51229;51.980;6.722;2023-01-15T00:04:05;4.30;99.90
64796;DHT22;51229;51.980;6.722;2023-01-15T00:06:40;4.40;99.90
64796;DHT22;51229;51.980;6.722;2023-01-15T00:09:07;4.40;99.90
64796;DHT22;51229;51.980;6.722;2023-01-15T00:11:33;4.40;99.90
64796;DHT22;51229;51.980;6.722;2023-01-15T00:13:59;4.40;99.90
64796;DHT22;51229;51.980;6.722;2023-01-15T00:16:25;4.40;99.90
64796;DHT22;51229;51.980;6.722;2023-01-15T00:18:54;4.30;99.90
64796;DHT22;51229;51.980;6.722;2023-01-15T00:21:20;4.30;99.90
64796;DHT22;51229;51.980;6.722;2023-01-15T00:23:47;4.30;99.90
64796;DHT22;51229;51.980;6.722;2023-01-15T00:26:32;4.20;99.90
64796;DHT22;51229;51.980;6.722;2023-01-15T00:29:18;4.10;99.90
64796;DHT22;51229;51.980;6.722;2023-01-15T00:32:00;4.20;99.90
64796;DHT22;51229;51.980;6.722;2023-01-15T00:34:27;4.10;99.90
64796;DHT22;51229;51.980;6.722;2023-01-15T00:36:54;4.10;99.90
64796;DHT22;51229;51.980;6.722;2023-01-15T00:39:20;4.10;99.90
64796;DHT22;51229;51.980;6.722;2023-01-15T00:41:46;4.10;99.90
64796;DHT22;51229;51.980;6.722;2023-01-15T00:44:12;4.10;99.90
64796;DHT22;51229;51.980;6.722;2023-01-15T00:46:38;4.00;99.90
64796;DHT22;51229;51.980;6.722;2023-01-15T00:49:04;4.00;99.90
64796;DHT22;51229;51.980;6.722;2023-01-15T00:51:30;4.00;99.90
64796;DHT22;51229;51.980;6.722;2023-01-15T00:53:56;4.00;99.90
64796;DHT22;51229;51.980;6.722;2023-01-15T00:56:21;4.00;99.90
64796;DHT22;51229;51.980;6.722;2023-01-15T00:58:47;3.90;99.90
64796;DHT22;51229;51.980;6.722;2023-01-15T01:01:13;4.00;99.90
64796;DHT22;51229;51.980;6.722;2023-01-15T01:03:40;3.80;99.90
64796;DHT22;51229;51.980;6.722;2023-01-15T01:06:06;3.90;99.90
64796;DHT22;51229;51.980;6.722;2023-01-15T01:08:33;3.80;99.90
64796;DHT22;51229;51.980;6.722;2023-01-15T01:13:28;3.90;99.90
64796;DHT22;51229;51.980;6.722;2023-01-15T01:15:53;3.80;99.90
64796;DHT22;51229;51.980;6.722;2023-01-15T01:18:19;3.80;99.90
64796;DHT22;51229;51.980;6.722;2023-01-15T01:20:45;3.80;99.90
64796;DHT22;51229;51.980;6.722;2023-01-15T01:23:10;3.80;99.90
64796;DHT22;51229;51.980;6.722;2023-01-15T01:25:36;3.80;99.90
64796;DHT22;51229;51.980;6.722;2023-01-15T01:28:02;3.80;99.90
64796;DHT22;51229;51.980;6.722;2023-01-15T01:30:28;3.80;99.90
64796;DHT22;51229;51.980;6.722;2023-01-15T01:32:53;3.70;99.90
64796;DHT22;51229;51.980;6.722;2023-01-15T01:35:19;3.70;99.90
64796;DHT22;51229;51.980;6.722;2023-01-15T01:37:49;3.80;99.90
64796;DHT22;51229;51.980;6.722;2023-01-15T01:40:15;3.70;99.90
64796;DHT22;51229;51.980;6.722;2023-01-15T01:42:41;3.70;99.90
64796;DHT22;51229;51.980;6.722;2023-01-15T01:45:20;3.70;99.90
64796;DHT22;51229;51.980;6.722;2023-01-15T01:47:50;3.80;99.90
64796;DHT22;51229;51.980;6.722;2023-01-15T01:50:17;3.70;99.90
64796;DHT22;51229;51.980;6.722;2023-01-15T01:52:50;3.70;99.90
64796;DHT22;51229;51.980;6.722;2023-01-15T01:55:19;3.70;99.90
64796;DHT22;51229;51.980;6.722;2023-01-15T01:57:47;3.70;99.90
64796;DHT22;51229;51.980;6.722;2023-01-15T02:00:14;3.60;99.90
64796;DHT22;51229;51.980;6.722;2023-01-15T02:02:45;3.60;99.90
64796;DHT22;51229;51.980;6.722;2023-01-15T02:05:27;3.60;99.90
64796;DHT22;51229;51.980;6.722;2023-01-15T02:07:54;3.60;99.90
64796;DHT22;51229;51.980;6.722;2023-01-15T02:10:20;3.60;99.90
64796;DHT22;51229;51.980;6.722;2023-01-15T02:15:35;3.50;99.90
64796;DHT22;51229;51.980;6.722;2023-01-15T02:18:22;3.60;99.90
64796;DHT22;51229;51.980;6.722;2023-01-15T02:21:03;3.40;99.90
64796;DHT22;51229;51.980;6.722;2023-01-15T02:28:55;3.50;99.90
64796;DHT22;51229;51.980;6.722;2023-01-15T02:31:37;3.40;99.90
64796;DHT22;51229;51.980;6.722;2023-01-15T02:34:24;3.40;99.90
64796;DHT22;51229;51.980;6.722;2023-01-15T02:36:57;3.40;99.90
64796;DHT22;51229;51.980;6.722;2023-01-15T02:39:27;3.30;99.90
64796;DHT22;51229;51.980;6.722;2023-01-15T02:41:59;3.20;99.90
64796;DHT22;51229;51.980;6.722;2023-01-15T02:44:31;3.20;99.90
64796;DHT22;51229;51.980;6.722;2023-01-15T02:46:59;3.30;99.90
64796;DHT22;51229;51.980;6.722;2023-01-15T02:49:28;3.30;99.90
64796;DHT22;51229;51.980;6.722;2023-01-15T02:52:02;3.30;99.90
64796;DHT22;51229;51.980;6.722;2023-01-15T02:54:39;3.20;99.90
64796;DHT22;51229;51.980;6.722;2023-01-15T02:57:07;3.30;99.90
64796;DHT22;51229;51.980;6.722;2023-01-15T02:59:38;3.30;99.90
64796;DHT22;51229;51.980;6.722;2023-01-15T03:02:28;3.30;99.90
64796;DHT22;51229;51.980;6.722;2023-01-15T03:05:08;3.20;99.90
64796;DHT22;51229;51.980;6.722;2023-01-15T03:07:39;3.20;99.90
64796;DHT22;51229;51.980;6.722;2023-01-15T03:10:07;3.30;99.90
64796;DHT22;51229;51.980;6.722;2023-01-15T03:18:35;3.20;99.90
64796;DHT22;51229;51.980;6.722;2023-01-15T03:21:05;3.10;99.90
64796;DHT22;51229;51.980;6.722;2023-01-15T03:23:36;3.10;99.90
64796;DHT22;51229;51.980;6.722;2023-01-15T03:26:03;3.10;99.90
64796;DHT22;51229;51.980;6.722;2023-01-15T03:28:33;3.10;99.90
64796;DHT22;51229;51.980;6.722;2023-01-15T03:31:00;3.10;99.90
64796;DHT22;51229;51.980;6.722;2023-01-15T03:33:28;3.10;99.90
64796;DHT22;51229;51.980;6.722;2023-01-15T03:35:59;3.10;99.90
64796;DHT22;51229;51.980;6.722;2023-01-15T03:38:38;3.10;99.90
64796;DHT22;51229;51.980;6.722;2023-01-15T03:41:30;2.90;99.90
64796;DHT22;51229;51.980;6.722;2023-01-15T03:46:41;3.00;99.90
64796;DHT22;51229;51.980;6.722;2023-01-15T03:55:14;3.00;99.90
64796;DHT22;51229;51.980;6.722;2023-01-15T03:58:19;3.00;99.90
64796;DHT22;51229;51.980;6.722;2023-01-15T04:00:55;2.90;99.90
64796;DHT22;51229;51.980;6.722;2023-01-15T04:03:25;3.00;99.90
64796;DHT22;51229;51.980;6.722;2023-01-15T04:05:55;2.90;99.90
64796;DHT22;51229;51.980;6.722;2023-01-15T04:08:23;2.90;99.90
64796;DHT22;51229;51.980;6.722;2023-01-15T04:10:57;2.90;99.90
64796;DHT22;51229;51.980;6.722;2023-01-15T04:13:27;2.90;99.90
64796;DHT22;51229;51.980;6.722;2023-01-15T04:15:53;3.00;99.90
64796;DHT22;51229;51.980;6.722;2023-01-15T04:18:20;3.00;99.90
64796;DHT22;51229;51.980;6.722;2023-01-15T04:20:46;3.10;99.90
64796;DHT22;51229;51.980;6.722;2023-01-15T04:23:13;3.00;99.90
64796;DHT22;51229;51.980;6.722;2023-01-15T04:25:39;2.90;99.90
64796;DHT22;51229;51.980;6.722;2023-01-15T04:28:06;3.00;99.90
64796;DHT22;51229;51.980;6.722;2023-01-15T04:30:33;2.90;99.90
64796;DHT22;51229;51.980;6.722;2023-01-15T04:33:00;3.00;99.90
64796;DHT22;51229;51.980;6.722;2023-01-15T04:35:26;2.90;99.90
64796;DHT22;51229;51.980;6.722;2023-01-15T04:37:58;3.00;99.90
64796;DHT22;51229;51.980;6.722;2023-01-15T04:40:25;2.90;99.90
64796;DHT22;51229;51.980;6.722;2023-01-15T04:43:11;3.00;99.90
64796;DHT22;51229;51.980;6.722;2023-01-15T04:45:56;3.00;99.90
64796;DHT22;51229;51.980;6.722;2023-01-15T04:48:22;2.90;99.90
64796;DHT22;51229;51.980;6.722;2023-01-15T04:50:48;2.90;99.90
64796;DHT22;51229;51.980;6.722;2023-01-15T04:53:14;2.80;99.90
64796;DHT22;51229;51.980;6.722;2023-01-15T04:55:39;2.80;99.90
64796;DHT22;51229;51.980;6.722;2023-01-15T04:58:05;2.90;99.90
64796;DHT22;51229;51.980;6.722;2023-01-15T05:00:31;2.80;99.90
64796;DHT22;51229;51.980;6.722;2023-01-15T05:02:56;2.70;99.90
64796;DHT22;51229;51.980;6.722;2023-01-15T05:05:22;2.70;99.90
64796;DHT22;51229;51.980;6.722;2023-01-15T05:07:48;2.70;99.90
64796;DHT22;51229;51.980;6.722;2023-01-15T05:10:13;2.80;99.90
64796;DHT22;51229;51.980;6.722;2023-01-15T05:12:39;2.80;99.90
64796;DHT22;51229;51.980;6.722;2023-01-15T05:15:05;2.80;99.90
64796;DHT22;51229;51.980;6.722;2023-01-15T05:17:32;2.80;99.90
64796;DHT22;51229;51.980;6.722;2023-01-15T05:19:57;2.70;99.90
64796;DHT22;51229;51.980;6.722;2023-01-15T05:22:23;2.70;99.90
64796;DHT22;51229;51.980;6.722;2023-01-15T05:24:50;2.70;99.90
64796;DHT22;51229;51.980;6.722;2023-01-15T05:27:16;2.80;99.90
64796;DHT22;51229;51.980;6.722;2023-01-15T05:29:41;2.70;99.90
64796;DHT22;51229;51.980;6.722;2023-01-15T05:32:07;2.80;99.90
64796;DHT22;51229;51.980;6.722;2023-01-15T05:34:33;2.70;99.90
64796;DHT22;51229;51.980;6.722;2023-01-15T05:36:59;2.70;99.90
64796;DHT22;51229;51.980;6.722;2023-01-15T05:39:24;2.80;99.90
64796;DHT22;51229;51.980;6.722;2023-01-15T05:41:50;2.80;99.90
64796;DHT22;51229;51.980;6.722;2023-01-15T05:44:24;2.80;99.90
64796;DHT22;51229;51.980;6.722;2023-01-15T05:46:52;2.80;99.90
64796;DHT22;51229;51.980;6.722;2023-01-15T05:49:24;2.80;99.90
64796;DHT22;51229;51.980;6.722;2023-01-15T05:51:51;2.80;99.90
64796;DHT22;51229;51.980;6.722;2023-01-15T05:54:21;2.80;99.90
64796;DHT22;51229;51.980;6.722;2023-01-15T05:56:47;2.70;99.90
64796;DHT22;51229;51.980;6.722;2023-01-15T05:59:15;2.70;99.90
64796;DHT22;51229;51.980;6.722;2023-01-15T06:01:41;2.80;99.90
64796;DHT22;51229;51.980;6.722;2023-01-15T06:04:07;2.70;99.90
64796;DHT22;51229;51.980;6.722;2023-01-15T06:06:33;2.70;99.90
64796;DHT22;51229;51.980;6.722;2023-01-15T06:09:00;2.70;99.90
64796;DHT22;51229;51.980;6.722;2023-01-15T06:11:25;2.80;99.90
64796;DHT22;51229;51.980;6.722;2023-01-15T06:13:51;2.60;99.90
64796;DHT22;51229;51.980;6.722;2023-01-15T06:16:17;2.70;99.90
64796;DHT22;51229;51.980;6.722;2023-01-15T06:18:44;2.70;99.90
64796;DHT22;51229;51.980;6.722;2023-01-15T06:21:11;2.70;99.90
64796;DHT22;51229;51.980;6.722;2023-01-15T06:23:38;2.70;99.90
64796;DHT22;51229;51.980;6.722;2023-01-15T06:26:06;2.70;99.90
64796;DHT22;51229;51.980;6.722;2023-01-15T06:28:32;2.70;99.90
64796;DHT22;51229;51.980;6.722;2023-01-15T06:30:58;2.70;99.90
64796;DHT22;51229;51.980;6.722;2023-01-15T06:33:24;2.70;99.90
64796;DHT22;51229;51.980;6.722;2023-01-15T06:35:50;2.60;99.90
64796;DHT22;51229;51.980;6.722;2023-01-15T06:38:16;2.70;99.90
64796;DHT22;51229;51.980;6.722;2023-01-15T06:40:42;2.70;99.90
64796;DHT22;51229;51.980;6.722;2023-01-15T06:43:09;2.70;99.90
64796;DHT22;51229;51.980;6.722;2023-01-15T06:45:53;2.60;99.90
64796;DHT22;51229;51.980;6.722;2023-01-15T06:48:38;2.60;99.90
64796;DHT22;51229;51.980;6.722;2023-01-15T06:51:04;2.50;99.90
64796;DHT22;51229;51.980;6.722;2023-01-15T06:53:29;2.60;99.90
64796;DHT22;51229;51.980;6.722;2023-01-15T06:55:55;2.60;99.90
64796;DHT22;51229;51.980;6.722;2023-01-15T06:58:21;2.60;99.90
64796;DHT22;51229;51.980;6.722;2023-01-15T07:00:47;2.60;99.90
64796;DHT22;51229;51.980;6.722;2023-01-15T07:03:19;2.60;99.90
64796;DHT22;51229;51.980;6.722;2023-01-15T07:05:45;2.60;99.90
64796;DHT22;51229;51.980;6.722;2023-01-15T07:08:10;2.50;99.90
64796;DHT22;51229;51.980;6.722;2023-01-15T07:10:36;2.50;99.90
64796;DHT22;51229;51.980;6.722;2023-01-15T07:13:02;2.60;99.90
64796;DHT22;51229;51.980;6.722;2023-01-15T07:15:28;2.50;99.90
64796;DHT22;51229;51.980;6.722;2023-01-15T07:17:54;2.40;99.90
64796;DHT22;51229;51.980;6.722;2023-01-15T07:20:20;2.50;99.90
64796;DHT22;51229;51.980;6.722;2023-01-15T07:22:50;2.50;99.90
64796;DHT22;51229;51.980;6.722;2023-01-15T07:25:15;2.50;99.90
64796;DHT22;51229;51.980;6.722;2023-01-15T07:27:41;2.40;99.90
64796;DHT22;51229;51.980;6.722;2023-01-15T07:30:08;2.40;99.90
64796;DHT22;51229;51.980;6.722;2023-01-15T07:32:33;2.40;99.90
64796;DHT22;51229;51.980;6.722;2023-01-15T07:34:59;2.50;99.90
64796;DHT22;51229;51.980;6.722;2023-01-15T07:37:25;2.40;99.90
64796;DHT22;51229;51.980;6.722;2023-01-15T07:39:50;2.40;99.90
64796;DHT22;51229;51.980;6.722;2023-01-15T07:42:16;2.40;99.90
64796;DHT22;51229;51.980;6.722;2023-01-15T07:45:20;2.40;99.90
64796;DHT22;51229;51.980;6.722;2023-01-15T07:48:07;2.50;99.90
64796;DHT22;51229;51.980;6.722;2023-01-15T07:50:52;2.40;99.90
64796;DHT22;51229;51.980;6.722;2023-01-15T07:53:17;2.40;99.90
64796;DHT22;51229;51.980;6.722;2023-01-15T07:55:43;2.40;99.90
64796;DHT22;51229;51.980;6.722;2023-01-15T07:58:09;2.40;99.90
64796;DHT22;51229;51.980;6.722;2023-01-15T08:00:34;2.50;99.90
64796;DHT22;51229;51.980;6.722;2023-01-15T08:03:00;2.50;99.90
64796;DHT22;51229;51.980;6.722;2023-01-15T08:05:28;2.50;99.90
64796;DHT22;51229;51.980;6.722;2023-01-15T08:07:53;2.40;99.90
64796;DHT22;51229;51.980;6.722;2023-01-15T08:10:19;2.40;99.90
64796;DHT22;51229;51.980;6.722;2023-01-15T08:12:47;2.40;99.90
64796;DHT22;51229;51.980;6.722;2023-01-15T08:15:37;2.40;99.90
64796;DHT22;51229;51.980;6.722;2023-01-15T08:18:03;2.40;99.90
64796;DHT22;51229;51.980;6.722;2023-01-15T08:20:29;2.50;99.90
64796;DHT22;51229;51.980;6.722;2023-01-15T08:22:55;2.40;99.90
64796;DHT22;51229;51.980;6.722;2023-01-15T08:25:23;2.40;99.90
64796;DHT22;51229;51.980;6.722;2023-01-15T08:27:49;2.50;99.90
64796;DHT22;51229;51.980;6.722;2023-01-15T08:30:19;2.40;99.90
64796;DHT22;51229;51.980;6.722;2023-01-15T08:32:45;2.40;99.90
64796;DHT22;51229;51.980;6.722;2023-01-15T08:35:11;2.40;99.90
64796;DHT22;51229;51.980;6.722;2023-01-15T08:37:38;2.40;99.90
64796;DHT22;51229;51.980;6.722;2023-01-15T08:40:05;2.40;99.90
64796;DHT22;51229;51.980;6.722;2023-01-15T08:42:30;2.40;99.90
64796;DHT22;51229;51.980;6.722;2023-01-15T08:44:56;2.40;99.90
64796;DHT22;51229;51.980;6.722;2023-01-15T08:47:22;2.40;99.90
64796;DHT22;51229;51.980;6.722;2023-01-15T08:49:47;2.50;99.90
64796;DHT22;51229;51.980;6.722;2023-01-15T08:52:14;2.50;99.90
64796;DHT22;51229;51.980;6.722;2023-01-15T08:54:39;2.50;99.90
64796;DHT22;51229;51.980;6.722;2023-01-15T08:57:05;2.60;99.90
64796;DHT22;51229;51.980;6.722;2023-01-15T08:59:34;2.70;99.90
64796;DHT22;51229;51.980;6.722;2023-01-15T09:01:59;2.60;99.90
64796;DHT22;51229;51.980;6.722;2023-01-15T09:04:25;2.80;99.90
64796;DHT22;51229;51.980;6.722;2023-01-15T09:06:51;2.90;99.90
64796;DHT22;51229;51.980;6.722;2023-01-15T09:09:17;3.30;99.90
64796;DHT22;51229;51.980;6.722;2023-01-15T09:11:43;3.10;99.90
64796;DHT22;51229;51.980;6.722;2023-01-15T09:14:10;3.50;99.90
64796;DHT22;51229;51.980;6.722;2023-01-15T09:16:37;3.90;99.90
64796;DHT22;51229;51.980;6.722;2023-01-15T09:19:04;3.80;99.90
64796;DHT22;51229;51.980;6.722;2023-01-15T09:21:30;3.50;99.90
64796;DHT22;51229;51.980;6.722;2023-01-15T09:23:56;3.90;99.90
64796;DHT22;51229;51.980;6.722;2023-01-15T09:26:36;4.20;99.90
64796;DHT22;51229;51.980;6.722;2023-01-15T09:29:03;4.30;99.90
64796;DHT22;51229;51.980;6.722;2023-01-15T09:31:30;4.60;99.90
64796;DHT22;51229;51.980;6.722;2023-01-15T09:33:56;4.20;99.90
64796;DHT22;51229;51.980;6.722;2023-01-15T09:36:23;4.00;99.90
64796;DHT22;51229;51.980;6.722;2023-01-15T09:38:50;4.30;99.90
64796;DHT22;51229;51.980;6.722;2023-01-15T09:41:16;4.10;99.90
64796;DHT22;51229;51.980;6.722;2023-01-15T09:44:11;4.60;99.90
64796;DHT22;51229;51.980;6.722;2023-01-15T09:49:32;4.60;99.90
64796;DHT22;51229;51.980;6.722;2023-01-15T09:55:09;5.70;99.90
64796;DHT22;51229;51.980;6.722;2023-01-15T09:57:38;5.40;99.90
64796;DHT22;51229;51.980;6.722;2023-01-15T10:00:05;4.30;99.90
64796;DHT22;51229;51.980;6.722;2023-01-15T10:05:29;5.20;99.90
64796;DHT22;51229;51.980;6.722;2023-01-15T10:08:14;4.50;99.90
64796;DHT22;51229;51.980;6.722;2023-01-15T10:10:46;5.40;99.90
64796;DHT22;51229;51.980;6.722;2023-01-15T10:16:03;4.50;99.90
64796;DHT22;51229;51.980;6.722;2023-01-15T10:18:29;4.10;99.90
64796;DHT22;51229;51.980;6.722;2023-01-15T10:24:14;4.90;99.90
64796;DHT22;51229;51.980;6.722;2023-01-15T10:26:50;4.40;99.90
64796;DHT22;51229;51.980;6.722;2023-01-15T10:29:53;5.10;99.90
64796;DHT22;51229;51.980;6.722;2023-01-15T10:32:32;5.50;99.90
64796;DHT22;51229;51.980;6.722;2023-01-15T10:44:16;5.40;99.90
64796;DHT22;51229;51.980;6.722;2023-01-15T10:46:48;6.40;99.90
64796;DHT22;51229;51.980;6.722;2023-01-15T10:49:16;6.00;99.90
64796;DHT22;51229;51.980;6.722;2023-01-15T10:51:51;5.00;99.90
64796;DHT22;51229;51.980;6.722;2023-01-15T10:57:35;5.50;99.90
64796;DHT22;51229;51.980;6.722;2023-01-15T10:59:58;5.10;99.90
64796;DHT22;51229;51.980;6.722;2023-01-15T11:04:56;4.80;99.90
64796;DHT22;51229;51.980;6.722;2023-01-15T11:07:46;4.60;99.90
64796;DHT22;51229;51.980;6.722;2023-01-15T11:10:15;4.90;99.90
64796;DHT22;51229;51.980;6.722;2023-01-15T11:12:54;4.90;99.90
64796;DHT22;51229;51.980;6.722;2023-01-15T11:15:40;5.10;99.90
64796;DHT22;51229;51.980;6.722;2023-01-15T11:18:40;5.20;99.90
64796;DHT22;51229;51.980;6.722;2023-01-15T11:21:24;5.00;99.90
64796;DHT22;51229;51.980;6.722;2023-01-15T11:23:53;4.70;99.90
64796;DHT22;51229;51.980;6.722;2023-01-15T11:26:26;4.60;99.90
64796;DHT22;51229;51.980;6.722;2023-01-15T11:28:54;4.60;99.90
64796;DHT22;51229;51.980;6.722;2023-01-15T11:31:20;4.60;99.90
64796;DHT22;51229;51.980;6.722;2023-01-15T11:34:00;4.60;99.90
64796;DHT22;51229;51.980;6.722;2023-01-15T11:36:28;4.40;99.90
64796;DHT22;51229;51.980;6.722;2023-01-15T11:38:54;4.30;99.90
64796;DHT22;51229;51.980;6.722;2023-01-15T11:41:34;4.40;99.90
64796;DHT22;51229;51.980;6.722;2023-01-15T11:44:20;4.50;99.90
64796;DHT22;51229;51.980;6.722;2023-01-15T11:47:11;4.40;99.90
64796;DHT22;51229;51.980;6.722;2023-01-15T11:49:55;4.50;99.90
64796;DHT22;51229;51.980;6.722;2023-01-15T11:52:47;4.60;99.90
64796;DHT22;51229;51.980;6.722;2023-01-15T11:55:18;4.50;99.90
64796;DHT22;51229;51.980;6.722;2023-01-15T11:57:45;4.50;99.90
64796;DHT22;51229;51.980;6.722;2023-01-15T12:00:20;4.40;99.90
64796;DHT22;51229;51.980;6.722;2023-01-15T12:02:48;4.30;99.90
64796;DHT22;51229;51.980;6.722;2023-01-15T12:05:21;4.40;99.90
64796;DHT22;51229;51.980;6.722;2023-01-15T12:07:48;4.30;99.90
64796;DHT22;51229;51.980;6.722;2023-01-15T12:15:56;4.50;99.90
64796;DHT22;51229;51.980;6.722;2023-01-15T12:19:00;4.40;99.90
64796;DHT22;51229;51.980;6.722;2023-01-15T12:27:29;4.30;99.90
64796;DHT22;51229;51.980;6.722;2023-01-15T12:29:59;4.30;99.90
64796;DHT22;51229;51.980;6.722;2023-01-15T12:32:34;4.30;99.90
64796;DHT22;51229;51.980;6.722;2023-01-15T12:35:18;4.40;99.90
64796;DHT22;51229;51.980;6.722;2023-01-15T12:37:55;4.30;99.90
64796;DHT22;51229;51.980;6.722;2023-01-15T12:40:44;4.20;99.90
64796;DHT22;51229;51.980;6.722;2023-01-15T12:43:30;4.20;99.90
64796;DHT22;51229;51.980;6.722;2023-01-15T12:46:16;4.30;99.90
64796;DHT22;51229;51.980;6.722;2023-01-15T12:48:57;4.30;99.90
64796;DHT22;51229;51.980;6.722;2023-01-15T12:52:01;4.30;99.90
64796;DHT22;51229;51.980;6.722;2023-01-15T12:54:39;4.20;99.90
64796;DHT22;51229;51.980;6.722;2023-01-15T12:57:27;4.30;99.90
64796;DHT22;51229;51.980;6.722;2023-01-15T13:05:54;4.20;99.90
64796;DHT22;51229;51.980;6.722;2023-01-15T13:10:50;4.30;99.90
64796;DHT22;51229;51.980;6.722;2023-01-15T13:13:40;4.20;99.90
64796;DHT22;51229;51.980;6.722;2023-01-15T13:16:27;4.00;99.90
64796;DHT22;51229;51.980;6.722;2023-01-15T13:21:31;3.80;99.90
64796;DHT22;51229;51.980;6.722;2023-01-15T13:24:27;4.00;99.90
64796;DHT22;51229;51.980;6.722;2023-01-15T13:32:47;3.80;99.90
64796;DHT22;51229;51.980;6.722;2023-01-15T13:35:26;3.70;99.90
64796;DHT22;51229;51.980;6.722;2023-01-15T13:37:55;3.70;99.90
64796;DHT22;51229;51.980;6.722;2023-01-15T13:40:26;3.80;99.90
64796;DHT22;51229;51.980;6.722;2023-01-15T13:42:53;3.80;99.90
64796;DHT22;51229;51.980;6.722;2023-01-15T13:45:33;3.80;99.90
64796;DHT22;51229;51.980;6.722;2023-01-15T13:48:29;3.90;99.90
64796;DHT22;51229;51.980;6.722;2023-01-15T13:50:57;3.80;99.90
64796;DHT22;51229;51.980;6.722;2023-01-15T13:55:58;3.80;99.90
64796;DHT22;51229;51.980;6.722;2023-01-15T13:58:29;3.80;99.90
64796;DHT22;51229;51.980;6.722;2023-01-15T14:06:48;3.70;99.90
64796;DHT22;51229;51.980;6.722;2023-01-15T14:16:57;3.80;99.90
64796;DHT22;51229;51.980;6.722;2023-01-15T14:22:32;3.10;99.90
64796;DHT22;51229;51.980;6.722;2023-01-15T14:25:07;3.10;99.90
64796;DHT22;51229;51.980;6.722;2023-01-15T14:33:39;3.40;99.90
64796;DHT22;51229;51.980;6.722;2023-01-15T14:36:17;3.30;99.90
64796;DHT22;51229;51.980;6.722;2023-01-15T14:38:49;3.00;99.90
64796;DHT22;51229;51.980;6.722;2023-01-15T14:41:28;3.00;99.90
64796;DHT22;51229;51.980;6.722;2023-01-15T14:43:55;2.80;99.90
64796;DHT22;51229;51.980;6.722;2023-01-15T14:46:31;2.70;99.90
64796;DHT22;51229;51.980;6.722;2023-01-15T14:49:02;2.80;99.90
64796;DHT22;51229;51.980;6.722;2023-01-15T14:51:30;2.80;99.90
64796;DHT22;51229;51.980;6.722;2023-01-15T14:54:08;2.90;99.90
64796;DHT22;51229;51.980;6.722;2023-01-15T14:56:43;2.80;99.90
64796;DHT22;51229;51.980;6.722;2023-01-15T15:02:07;3.10;99.90
64796;DHT22;51229;51.980;6.722;2023-01-15T15:04:46;3.00;99.90
64796;DHT22;51229;51.980;6.722;2023-01-15T15:07:22;2.90;99.90
64796;DHT22;51229;51.980;6.722;2023-01-15T15:09:53;2.80;99.90
64796;DHT22;51229;51.980;6.722;2023-01-15T15:12:43;2.70;99.90
64796;DHT22;51229;51.980;6.722;2023-01-15T15:21:06;3.00;99.90
64796;DHT22;51229;51.980;6.722;2023-01-15T15:29:04;3.00;99.90
64796;DHT22;51229;51.980;6.722;2023-01-15T15:31:33;2.80;99.90
64796;DHT22;51229;51.980;6.722;2023-01-15T15:34:00;2.80;99.90
64796;DHT22;51229;51.980;6.722;2023-01-15T15:36:29;2.80;99.90
64796;DHT22;51229;51.980;6.722;2023-01-15T15:39:16;2.90;99.90
64796;DHT22;51229;51.980;6.722;2023-01-15T15:41:46;2.80;99.90
64796;DHT22;51229;51.980;6.722;2023-01-15T15:44:55;2.60;99.90
64796;DHT22;51229;51.980;6.722;2023-01-15T15:47:41;2.50;99.90
64796;DHT22;51229;51.980;6.722;2023-01-15T15:50:28;2.70;99.90
64796;DHT22;51229;51.980;6.722;2023-01-15T15:52:56;2.70;99.90
64796;DHT22;51229;51.980;6.722;2023-01-15T15:55:40;2.50;99.90
64796;DHT22;51229;51.980;6.722;2023-01-15T15:58:07;2.50;99.90
64796;DHT22;51229;51.980;6.722;2023-01-15T16:00:40;2.40;99.90
64796;DHT22;51229;51.980;6.722;2023-01-15T16:03:27;2.60;99.90
64796;DHT22;51229;51.980;6.722;2023-01-15T16:06:20;2.60;99.90
64796;DHT22;51229;51.980;6.722;2023-01-15T16:08:57;2.60;99.90
64796;DHT22;51229;51.980;6.722;2023-01-15T16:11:30;2.40;99.90
64796;DHT22;51229;51.980;6.722;2023-01-15T16:13:59;2.50;99.90
64796;DHT22;51229;51.980;6.722;2023-01-15T16:16:28;2.60;99.90
64796;DHT22;51229;51.980;6.722;2023-01-15T16:18:55;2.70;99.90
64796;DHT22;51229;51.980;6.722;2023-01-15T16:21:26;2.70;99.90
64796;DHT22;51229;51.980;6.722;2023-01-15T16:24:03;2.60;99.90
64796;DHT22;51229;51.980;6.722;2023-01-15T16:26:41;2.70;99.90
64796;DHT22;51229;51.980;6.722;2023-01-15T16:29:21;2.80;99.90
64796;DHT22;51229;51.980;6.722;2023-01-15T16:31:48;2.60;99.90
64796;DHT22;51229;51.980;6.722;2023-01-15T16:34:18;2.60;99.90
64796;DHT22;51229;51.980;6.722;2023-01-15T16:36:44;2.70;99.90
64796;DHT22;51229;51.980;6.722;2023-01-15T16:42:02;2.60;99.90
64796;DHT22;51229;51.980;6.722;2023-01-15T16:47:01;2.20;99.90
64796;DHT22;51229;51.980;6.722;2023-01-15T16:49:30;2.50;99.90
64796;DHT22;51229;51.980;6.722;2023-01-15T16:51:58;2.70;99.90
64796;DHT22;51229;51.980;6.722;2023-01-15T16:56:59;2.50;99.90
64796;DHT22;51229;51.980;6.722;2023-01-15T17:01:51;2.40;99.90
64796;DHT22;51229;51.980;6.722;2023-01-15T17:04:27;2.50;99.90
64796;DHT22;51229;51.980;6.722;2023-01-15T17:07:05;2.50;99.90
64796;DHT22;51229;51.980;6.722;2023-01-15T17:09:33;2.40;99.90
64796;DHT22;51229;51.980;6.722;2023-01-15T17:12:07;2.60;99.90
64796;DHT22;51229;51.980;6.722;2023-01-15T17:14:33;2.60;99.90
64796;DHT22;51229;51.980;6.722;2023-01-15T17:17:16;2.50;99.90
64796;DHT22;51229;51.980;6.722;2023-01-15T17:19:42;2.40;99.90
64796;DHT22;51229;51.980;6.722;2023-01-15T17:22:23;2.60;99.90
64796;DHT22;51229;51.980;6.722;2023-01-15T17:24:51;2.70;99.90
64796;DHT22;51229;51.980;6.722;2023-01-15T17:27:17;2.60;99.90
64796;DHT22;51229;51.980;6.722;2023-01-15T17:29:43;2.60;99.90
64796;DHT22;51229;51.980;6.722;2023-01-15T17:32:30;2.70;99.90
64796;DHT22;51229;51.980;6.722;2023-01-15T17:34:56;2.60;99.90
64796;DHT22;51229;51.980;6.722;2023-01-15T17:37:22;2.70;99.90
64796;DHT22;51229;51.980;6.722;2023-01-15T17:39:48;2.70;99.90
64796;DHT22;51229;51.980;6.722;2023-01-15T17:42:16;2.60;99.90
64796;DHT22;51229;51.980;6.722;2023-01-15T17:44:42;2.60;99.90
64796;DHT22;51229;51.980;6.722;2023-01-15T17:47:08;2.50;99.90
64796;DHT22;51229;51.980;6.722;2023-01-15T17:49:34;2.60;99.90
64796;DHT22;51229;51.980;6.722;2023-01-15T17:52:01;2.50;99.90
64796;DHT22;51229;51.980;6.722;2023-01-15T17:54:27;2.50;99.90
64796;DHT22;51229;51.980;6.722;2023-01-15T17:57:11;2.50;99.90
64796;DHT22;51229;51.980;6.722;2023-01-15T17:59:55;2.50;99.90
64796;DHT22;51229;51.980;6.722;2023-01-15T18:02:40;2.50;99.90
64796;DHT22;51229;51.980;6.722;2023-01-15T18:05:26;2.50;99.90
64796;DHT22;51229;51.980;6.722;2023-01-15T18:07:55;2.60;99.90
64796;DHT22;51229;51.980;6.722;2023-01-15T18:10:21;2.50;99.90
64796;DHT22;51229;51.980;6.722;2023-01-15T18:12:48;2.50;99.90
64796;DHT22;51229;51.980;6.722;2023-01-15T18:15:14;2.60;99.90
64796;DHT22;51229;51.980;6.722;2023-01-15T18:17:41;2.60;99.90
64796;DHT22;51229;51.980;6.722;2023-01-15T18:20:08;2.60;99.90
64796;DHT22;51229;51.980;6.722;2023-01-15T18:22:34;2.70;99.90
64796;DHT22;51229;51.980;6.722;2023-01-15T18:24:59;2.60;99.90